createdAt,value
2018-07-19T00:00:20.761Z,101140.26
2018-07-19T00:02:49.866Z,101143.31
2018-07-19T00:05:18.959Z,101143.08
2018-07-19T00:07:48.065Z,101139.94
2018-07-19T00:10:17.153Z,101145.41
2018-07-19T00:12:46.249Z,101150.83
2018-07-19T00:15:15.344Z,101146.77
2018-07-19T00:17:44.437Z,101147.44
2018-07-19T00:20:13.523Z,101155.83
2018-07-19T00:22:42.645Z,101154.37
2018-07-19T00:25:11.729Z,101151.13
2018-07-19T00:27:40.817Z,101153.04
2018-07-19T00:30:09.946Z,101156.14
2018-07-19T00:32:39.143Z,101149.98
2018-07-19T00:35:08.250Z,101156.68
2018-07-19T00:37:37.335Z,101167.58
2018-07-19T00:40:06.449Z,101170.16
2018-07-19T00:42:35.529Z,101159.30
2018-07-19T00:45:04.674Z,101162.34
2018-07-19T00:47:33.757Z,101161.87
2018-07-19T00:50:02.877Z,101161.50
2018-07-19T00:52:31.976Z,101156.95
2018-07-19T00:55:01.158Z,101158.31
2018-07-19T00:57:30.291Z,101160.61
2018-07-19T00:59:59.366Z,101154.12
2018-07-19T01:02:28.473Z,101148.34
2018-07-19T01:04:57.570Z,101152.49
2018-07-19T01:07:26.701Z,101148.95
2018-07-19T01:09:55.801Z,101156.23
2018-07-19T01:12:24.929Z,101158.92
2018-07-19T01:14:54.023Z,101161.97
2018-07-19T01:17:23.105Z,101162.55
2018-07-19T01:19:52.227Z,101165.50
2018-07-19T01:22:21.333Z,101168.05
2018-07-19T01:24:50.441Z,101163.90
2018-07-19T01:27:19.650Z,101162.17
2018-07-19T01:29:48.737Z,101163.92
2018-07-19T01:32:17.837Z,101162.48
2018-07-19T01:34:46.925Z,101160.67
2018-07-19T01:37:16.045Z,101169.06
2018-07-19T01:39:45.133Z,101170.56
2018-07-19T01:42:28.666Z,101170.26
2018-07-19T01:44:57.749Z,101163.36
2018-07-19T01:47:26.860Z,101167.45
2018-07-19T01:49:56.002Z,101165.31
2018-07-19T01:52:25.108Z,101165.84
2018-07-19T01:54:54.225Z,101169.98
2018-07-19T01:57:23.338Z,101161.33
2018-07-19T01:59:52.421Z,101163.09
2018-07-19T02:02:21.545Z,101167.62
2018-07-19T02:04:50.613Z,101162.70
2018-07-19T02:07:19.717Z,101166.80
2018-07-19T02:09:48.830Z,101165.23
2018-07-19T02:12:17.961Z,101167.33
2018-07-19T02:14:47.061Z,101165.28
2018-07-19T02:17:16.167Z,101170.38
2018-07-19T02:19:45.254Z,101174.48
2018-07-19T02:22:14.380Z,101174.98
2018-07-19T02:24:43.762Z,101182.29
2018-07-19T02:27:12.821Z,101168.50
2018-07-19T02:29:41.933Z,101170.83
2018-07-19T02:32:11.056Z,101169.69
2018-07-19T02:34:40.161Z,101161.95
2018-07-19T02:37:09.281Z,101162.61
2018-07-19T02:39:38.385Z,101171.36
2018-07-19T02:42:07.496Z,101173.11
2018-07-19T02:44:36.605Z,101166.91
2018-07-19T02:47:05.773Z,101170.49
2018-07-19T02:49:34.863Z,101167.86
2018-07-19T02:52:03.976Z,101168.38
2018-07-19T02:54:33.089Z,101170.55
2018-07-19T02:57:02.217Z,101170.71
2018-07-19T02:59:31.316Z,101174.10
2018-07-19T03:02:00.437Z,101166.23
2018-07-19T03:04:29.500Z,101172.37
2018-07-19T03:06:58.591Z,101170.54
2018-07-19T03:09:27.701Z,101174.44
2018-07-19T03:11:56.797Z,101172.77
2018-07-19T03:14:25.933Z,101174.12
2018-07-19T03:16:55.040Z,101171.05
2018-07-19T03:19:24.121Z,101173.13
2018-07-19T03:21:53.221Z,101171.48
2018-07-19T03:24:22.304Z,101173.03
2018-07-19T03:26:51.404Z,101175.38
2018-07-19T03:29:20.509Z,101167.00
2018-07-19T03:31:49.593Z,101167.45
2018-07-19T03:34:18.701Z,101164.94
2018-07-19T03:36:47.957Z,101164.70
2018-07-19T03:39:17.089Z,101174.27
2018-07-19T03:41:46.202Z,101170.44
2018-07-19T03:44:15.311Z,101165.25
2018-07-19T03:46:44.413Z,101170.26
2018-07-19T03:49:13.530Z,101171.51
2018-07-19T03:51:42.693Z,101163.38
2018-07-19T03:54:11.785Z,101162.84
2018-07-19T03:56:40.897Z,101158.97
2018-07-19T03:59:09.976Z,101162.20
2018-07-19T04:01:39.085Z,101165.00
2018-07-19T04:04:08.189Z,101168.15
2018-07-19T04:06:37.314Z,101168.50
2018-07-19T04:09:07.284Z,101172.00
2018-07-19T04:11:36.366Z,101178.77
2018-07-19T04:14:05.809Z,101168.89
2018-07-19T04:16:34.905Z,101175.14
2018-07-19T04:19:04.006Z,101168.89
2018-07-19T04:21:33.101Z,101162.13
2018-07-19T04:24:02.190Z,101163.84
2018-07-19T04:26:31.285Z,101162.38
2018-07-19T04:29:00.383Z,101163.44
2018-07-19T04:31:29.485Z,101170.53
2018-07-19T04:33:58.609Z,101162.95
2018-07-19T04:36:27.713Z,101165.77
2018-07-19T04:38:56.813Z,101163.97
2018-07-19T04:41:25.925Z,101165.28
2018-07-19T04:43:55.035Z,101164.12
2018-07-19T04:46:24.140Z,101169.02
2018-07-19T04:48:53.249Z,101166.34
2018-07-19T04:51:22.377Z,101164.46
2018-07-19T04:53:51.501Z,101171.20
2018-07-19T04:56:20.593Z,101170.69
2018-07-19T04:58:49.711Z,101174.05
2018-07-19T05:01:18.810Z,101163.78
2018-07-19T05:03:47.897Z,101169.38
2018-07-19T05:06:16.989Z,101174.13
2018-07-19T05:08:46.105Z,101176.20
2018-07-19T05:11:15.241Z,101169.78
2018-07-19T05:13:44.369Z,101173.77
2018-07-19T05:16:13.598Z,101179.75
2018-07-19T05:18:42.781Z,101176.91
2018-07-19T05:21:11.899Z,101177.77
2018-07-19T05:23:41.013Z,101178.51
2018-07-19T05:26:10.098Z,101177.19
2018-07-19T05:28:39.332Z,101181.01
2018-07-19T05:31:08.456Z,101184.88
2018-07-19T05:33:37.592Z,101184.50
2018-07-19T05:36:06.955Z,101176.80
2018-07-19T05:38:36.096Z,101181.12
2018-07-19T05:41:05.286Z,101179.58
2018-07-19T05:43:34.425Z,101174.87
2018-07-19T05:46:03.529Z,101173.75
2018-07-19T05:48:32.810Z,101178.20
2018-07-19T05:51:02.203Z,101176.84
2018-07-19T05:53:31.286Z,101176.32
2018-07-19T05:56:00.501Z,101170.54
2018-07-19T05:58:29.621Z,101169.78
2018-07-19T06:00:58.729Z,101172.09
2018-07-19T06:03:27.821Z,101168.02
2018-07-19T06:05:56.987Z,101167.50
2018-07-19T06:08:26.246Z,101173.50
2018-07-19T06:10:55.365Z,101174.84
2018-07-19T06:13:24.519Z,101175.11
2018-07-19T06:15:53.693Z,101177.22
2018-07-19T06:18:22.816Z,101179.50
2018-07-19T06:20:51.913Z,101174.64
2018-07-19T06:23:21.093Z,101175.47
2018-07-19T06:25:50.185Z,101176.42
2018-07-19T06:28:19.283Z,101178.94
2018-07-19T06:30:48.409Z,101178.06
2018-07-19T06:33:17.501Z,101176.22
2018-07-19T06:35:46.641Z,101185.55
2018-07-19T06:38:15.725Z,101187.29
2018-07-19T06:40:44.848Z,101189.50
2018-07-19T06:43:13.945Z,101186.17
2018-07-19T06:45:43.232Z,101190.97
2018-07-19T06:48:12.321Z,101189.29
2018-07-19T06:50:41.413Z,101186.36
2018-07-19T06:53:10.569Z,101189.55
2018-07-19T06:55:39.669Z,101186.27
2018-07-19T06:58:19.533Z,101187.05
2018-07-19T07:00:48.648Z,101195.44
2018-07-19T07:03:17.741Z,101192.48
2018-07-19T07:05:47.061Z,101182.16
2018-07-19T07:08:16.141Z,101181.73
2018-07-19T07:10:45.257Z,101188.34
2018-07-19T07:13:14.345Z,101184.88
2018-07-19T07:15:43.449Z,101190.58
2018-07-19T07:18:12.541Z,101186.03
2018-07-19T07:20:46.209Z,101183.28
2018-07-19T07:23:15.357Z,101187.61
2018-07-19T07:25:48.625Z,101189.95
2018-07-19T07:28:18.533Z,101183.89
2018-07-19T07:30:47.677Z,101185.23
2018-07-19T07:33:17.279Z,101191.07
2018-07-19T07:35:47.130Z,101182.50
2018-07-19T07:38:16.822Z,101177.22
2018-07-19T07:40:46.255Z,101188.09
2018-07-19T07:43:15.389Z,101183.61
2018-07-19T07:45:44.617Z,101178.30
2018-07-19T07:48:13.730Z,101181.17
2018-07-19T07:50:42.909Z,101186.03
2018-07-19T07:53:11.994Z,101183.92
2018-07-19T07:55:41.074Z,101181.96
2018-07-19T07:58:10.242Z,101179.12
2018-07-19T08:00:39.313Z,101185.43
2018-07-19T08:03:08.598Z,101179.28
2018-07-19T08:05:37.745Z,101184.30
2018-07-19T08:08:06.857Z,101180.17
2018-07-19T08:10:35.978Z,101180.27
2018-07-19T08:13:05.066Z,101175.45
2018-07-19T08:15:34.164Z,101183.70
2018-07-19T08:18:03.313Z,101176.39
2018-07-19T08:20:32.441Z,101179.75
2018-07-19T08:23:01.541Z,101173.98
2018-07-19T08:25:30.765Z,101167.45
2018-07-19T08:28:00.061Z,101167.89
2018-07-19T08:30:29.152Z,101173.98
2018-07-19T08:32:58.274Z,101167.31
2018-07-19T08:35:27.446Z,101165.17
2018-07-19T08:37:56.589Z,101159.66
2018-07-19T08:40:25.753Z,101163.64
2018-07-19T08:42:55.093Z,101162.34
2018-07-19T08:45:24.201Z,101155.39
2018-07-19T08:47:53.289Z,101158.21
2018-07-19T08:50:22.369Z,101157.19
2018-07-19T08:52:51.461Z,101161.64
2018-07-19T08:55:20.629Z,101150.80
2018-07-19T08:57:49.722Z,101156.88
2018-07-19T09:00:19.710Z,101159.66
2018-07-19T09:02:48.805Z,101154.59
2018-07-19T09:05:17.981Z,101161.85
2018-07-19T09:07:47.157Z,101162.30
2018-07-19T09:10:16.807Z,101147.08
2018-07-19T09:12:45.937Z,101152.58
2018-07-19T09:15:15.040Z,101153.16
2018-07-19T09:17:44.149Z,101157.18
2018-07-19T09:20:13.277Z,101150.84
2018-07-19T09:22:42.381Z,101152.27
2018-07-19T09:25:11.485Z,101149.19
2018-07-19T09:27:40.573Z,101147.66
2018-07-19T09:30:09.697Z,101145.02
2018-07-19T09:32:38.797Z,101144.08
2018-07-19T09:35:07.914Z,101141.02
2018-07-19T09:37:37.009Z,101141.77
2018-07-19T09:40:06.277Z,101146.57
2018-07-19T09:42:35.461Z,101143.86
2018-07-19T09:45:04.681Z,101132.58
2018-07-19T09:47:33.786Z,101129.41
2018-07-19T09:50:02.902Z,101128.42
2018-07-19T09:52:32.017Z,101126.97
2018-07-19T09:55:02.326Z,101116.23
2018-07-19T09:57:32.117Z,101127.40
2018-07-19T10:00:01.215Z,101128.14
2018-07-19T10:02:30.306Z,101118.70
2018-07-19T10:04:59.401Z,101121.27
2018-07-19T10:07:28.498Z,101122.19
2018-07-19T10:09:57.643Z,101120.92
2018-07-19T10:12:26.668Z,101117.88
2018-07-19T10:14:55.758Z,101114.07
2018-07-19T10:17:24.882Z,101113.67
2018-07-19T10:19:53.937Z,101117.53
2018-07-19T10:22:23.049Z,101116.86
2018-07-19T10:24:52.137Z,101108.34
2018-07-19T10:27:21.213Z,101108.06
2018-07-19T10:29:50.362Z,101105.95
2018-07-19T10:32:19.614Z,101110.84
2018-07-19T10:34:48.579Z,101100.31
2018-07-19T10:37:17.685Z,101106.98
2018-07-19T10:39:46.781Z,101099.45
2018-07-19T10:42:16.394Z,101099.59
2018-07-19T10:44:45.537Z,101102.60
2018-07-19T10:47:14.665Z,101086.70
2018-07-19T10:49:43.751Z,101092.59
2018-07-19T10:52:12.857Z,101089.94
2018-07-19T10:54:41.957Z,101097.07
2018-07-19T10:57:11.053Z,101086.92
2018-07-19T10:59:40.169Z,101089.55
2018-07-19T11:02:09.597Z,101091.17
2018-07-19T11:04:38.721Z,101085.85
2018-07-19T11:07:07.842Z,101087.59
2018-07-19T11:09:36.959Z,101078.13
2018-07-19T11:12:06.245Z,101082.88
2018-07-19T11:14:35.541Z,101078.79
2018-07-19T11:17:04.720Z,101072.44
2018-07-19T11:19:33.805Z,101073.89
2018-07-19T11:22:02.896Z,101080.98
2018-07-19T11:24:32.014Z,101078.02
2018-07-19T11:27:01.154Z,101068.36
2018-07-19T11:29:30.273Z,101065.70
2018-07-19T11:31:59.385Z,101064.58
2018-07-19T11:34:28.465Z,101067.37
2018-07-19T11:36:57.589Z,101061.47
2018-07-19T11:39:26.740Z,101057.94
2018-07-19T11:41:56.382Z,101056.20
2018-07-19T11:44:25.513Z,101059.25
2018-07-19T11:46:54.617Z,101057.21
2018-07-19T11:49:23.740Z,101056.41
2018-07-19T11:51:52.865Z,101054.62
2018-07-19T11:54:21.969Z,101048.81
2018-07-19T11:56:51.125Z,101047.69
2018-07-19T11:59:20.761Z,101045.27
2018-07-19T12:01:49.906Z,101043.47
2018-07-19T12:04:19.309Z,101037.47
2018-07-19T12:06:48.433Z,101040.03
2018-07-19T12:09:17.581Z,101039.30
2018-07-19T12:11:46.685Z,101041.52
2018-07-19T12:14:15.793Z,101040.61
2018-07-19T12:16:44.889Z,101030.97
2018-07-19T12:19:13.993Z,101031.73
2018-07-19T12:21:43.169Z,101032.87
2018-07-19T12:24:12.264Z,101034.04
2018-07-19T12:26:41.371Z,101027.66
2018-07-19T12:29:10.459Z,101034.55
2018-07-19T12:31:39.605Z,101032.02
2018-07-19T12:34:08.698Z,101035.46
2018-07-19T12:36:37.873Z,101023.02
2018-07-19T12:39:09.114Z,101024.54
2018-07-19T12:41:38.245Z,101026.64
2018-07-19T12:44:07.604Z,101015.77
2018-07-19T12:46:36.699Z,101018.95
2018-07-19T12:49:06.353Z,101018.36
2018-07-19T12:51:35.513Z,101011.86
2018-07-19T12:54:04.623Z,101011.02
2018-07-19T12:56:33.742Z,101015.42
2018-07-19T12:59:02.845Z,101008.88
2018-07-19T13:01:32.039Z,101011.92
2018-07-19T13:04:01.147Z,101015.88
2018-07-19T13:06:30.305Z,101017.28
2018-07-19T13:08:59.468Z,101014.03
2018-07-19T13:11:28.553Z,101016.16
2018-07-19T13:13:58.342Z,101013.19
2018-07-19T13:16:27.482Z,101012.97
2018-07-19T13:18:56.709Z,101008.06
2018-07-19T13:21:26.005Z,101005.21
2018-07-19T13:23:56.669Z,101001.88
2018-07-19T13:26:26.062Z,101001.80
2018-07-19T13:28:55.213Z,101004.28
2018-07-19T13:31:24.382Z,101000.95
2018-07-19T13:33:54.385Z,100993.53
2018-07-19T13:36:23.521Z,100999.18
2018-07-19T13:38:52.670Z,101000.52
2018-07-19T13:41:21.841Z,100994.38
2018-07-19T13:43:50.961Z,100993.13
2018-07-19T13:46:20.088Z,100986.37
2018-07-19T13:48:49.205Z,100990.31
2018-07-19T13:51:18.373Z,100988.58
2018-07-19T13:54:17.828Z,100984.22
2018-07-19T13:56:46.937Z,100986.13
2018-07-19T13:59:16.997Z,100977.33
2018-07-19T14:01:46.154Z,100978.51
2018-07-19T14:04:15.327Z,100979.56
2018-07-19T14:06:44.368Z,100971.48
2018-07-19T14:09:14.854Z,100971.95
2018-07-19T14:11:44.047Z,100969.27
2018-07-19T14:14:13.197Z,100964.26
2018-07-19T14:16:42.301Z,100962.91
2018-07-19T14:19:11.470Z,100960.42
2018-07-19T14:21:40.597Z,100960.09
2018-07-19T14:24:09.809Z,100963.55
2018-07-19T14:26:39.001Z,100957.27
2018-07-19T14:29:08.095Z,100956.47
2018-07-19T14:31:37.230Z,100957.25
2018-07-19T14:34:06.398Z,100951.92
2018-07-19T14:36:35.573Z,100950.34
2018-07-19T14:39:08.057Z,100948.23
2018-07-19T14:41:37.280Z,100954.34
2018-07-19T14:44:07.503Z,100942.16
2018-07-19T14:46:36.585Z,100949.95
2018-07-19T14:49:05.769Z,100938.92
2018-07-19T14:51:34.944Z,100939.80
2018-07-19T14:54:04.061Z,100937.13
2018-07-19T14:56:33.197Z,100940.83
2018-07-19T14:59:02.309Z,100931.89
2018-07-19T15:01:31.430Z,100931.53
2018-07-19T15:04:00.548Z,100926.19
2018-07-19T15:06:29.651Z,100930.40
2018-07-19T15:08:58.813Z,100922.36
2018-07-19T15:11:27.977Z,100920.58
2018-07-19T15:13:57.163Z,100919.09
2018-07-19T15:16:26.248Z,100915.14
2018-07-19T15:18:55.506Z,100912.70
2018-07-19T15:21:24.641Z,100915.04
2018-07-19T15:23:53.769Z,100908.95
2018-07-19T15:26:22.872Z,100899.94
2018-07-19T15:28:52.065Z,100894.88
2018-07-19T15:31:21.108Z,100898.16
2018-07-19T15:33:50.237Z,100899.70
2018-07-19T15:36:19.357Z,100895.45
2018-07-19T15:38:48.527Z,100897.98
2018-07-19T15:41:17.641Z,100898.22
2018-07-19T15:43:46.737Z,100894.27
2018-07-19T15:46:15.845Z,100891.23
2018-07-19T15:48:45.030Z,100888.42
2018-07-19T15:51:14.173Z,100881.92
2018-07-19T15:53:43.321Z,100884.11
2018-07-19T15:56:12.409Z,100879.98
2018-07-19T15:58:41.559Z,100881.70
2018-07-19T16:01:10.643Z,100875.97
2018-07-19T16:03:39.727Z,100874.65
2018-07-19T16:06:08.868Z,100872.70
2018-07-19T16:08:37.949Z,100869.38
2018-07-19T16:11:07.173Z,100869.21
2018-07-19T16:13:36.345Z,100870.36
2018-07-19T16:16:05.450Z,100875.98
2018-07-19T16:18:34.577Z,100872.50
2018-07-19T16:21:03.705Z,100869.70
2018-07-19T16:23:32.805Z,100861.40
2018-07-19T16:26:01.966Z,100857.63
2018-07-19T16:28:31.041Z,100854.34
2018-07-19T16:31:00.158Z,100855.59
2018-07-19T16:33:29.243Z,100850.18
2018-07-19T16:35:58.432Z,100853.47
2018-07-19T16:38:27.549Z,100854.80
2018-07-19T16:40:56.738Z,100856.13
2018-07-19T16:43:25.768Z,100856.02
2018-07-19T16:45:54.869Z,100848.08
2018-07-19T16:48:23.991Z,100854.52
2018-07-19T16:50:53.092Z,100851.70
2018-07-19T16:53:22.299Z,100853.46
2018-07-19T16:55:51.398Z,100844.24
2018-07-19T16:58:20.530Z,100842.09
2018-07-19T17:00:49.745Z,100843.60
2018-07-19T17:03:18.829Z,100844.21
2018-07-19T17:05:48.013Z,100837.53
2018-07-19T17:08:17.108Z,100839.25
2018-07-19T17:10:46.545Z,100838.24
2018-07-19T17:13:15.926Z,100835.24
2018-07-19T17:15:45.026Z,100838.14
2018-07-19T17:18:14.166Z,100837.45
2018-07-19T17:20:43.279Z,100841.03
2018-07-19T17:23:12.377Z,100826.31
2018-07-19T17:25:41.549Z,100826.54
2018-07-19T17:28:10.698Z,100820.01
2018-07-19T17:30:39.911Z,100822.83
2018-07-19T17:33:09.017Z,100825.99
2018-07-19T17:35:38.116Z,100831.18
2018-07-19T17:38:07.229Z,100823.80
2018-07-19T17:40:36.349Z,100829.87
2018-07-19T17:43:05.798Z,100826.98
2018-07-19T17:45:35.141Z,100827.78
2018-07-19T17:48:04.253Z,100831.44
2018-07-19T17:50:33.349Z,100829.50
2018-07-19T17:53:02.442Z,100828.83
2018-07-19T17:55:31.561Z,100830.27
2018-07-19T17:58:00.721Z,100827.11
2018-07-19T18:00:29.809Z,100826.95
2018-07-19T18:02:58.901Z,100826.09
2018-07-19T18:05:27.993Z,100825.14
2018-07-19T18:07:57.139Z,100826.58
2018-07-19T18:10:26.225Z,100825.78
2018-07-19T18:12:55.532Z,100830.70
2018-07-19T18:15:24.673Z,100822.16
2018-07-19T18:17:53.953Z,100823.51
2018-07-19T18:20:23.100Z,100817.30
2018-07-19T18:22:52.165Z,100822.43
2018-07-19T18:25:21.249Z,100822.95
2018-07-19T18:27:50.365Z,100821.41
2018-07-19T18:30:19.458Z,100821.41
2018-07-19T18:32:48.583Z,100816.83
2018-07-19T18:35:17.661Z,100816.97
2018-07-19T18:37:46.761Z,100822.14
2018-07-19T18:40:15.849Z,100818.52
2018-07-19T18:42:44.961Z,100816.84
2018-07-19T18:45:14.117Z,100818.99
2018-07-19T18:47:43.209Z,100819.13
2018-07-19T18:50:12.343Z,100822.61
2018-07-19T18:52:41.446Z,100822.27
2018-07-19T18:55:10.553Z,100814.86
2018-07-19T18:57:39.653Z,100812.99
2018-07-19T19:00:08.798Z,100817.11
2018-07-19T19:02:37.889Z,100815.45
2018-07-19T19:05:07.031Z,100817.52
2018-07-19T19:07:36.121Z,100820.22
2018-07-19T19:10:05.332Z,100820.00
2018-07-19T19:12:34.425Z,100817.36
2018-07-19T19:15:03.571Z,100815.88
2018-07-19T19:17:32.700Z,100822.34
2018-07-19T19:20:01.781Z,100827.42
2018-07-19T19:22:30.917Z,100835.13
2018-07-19T19:25:00.020Z,100837.41
2018-07-19T19:27:29.145Z,100842.59
2018-07-19T19:29:58.270Z,100844.48
2018-07-19T19:32:27.749Z,100847.64
2018-07-19T19:34:56.873Z,100849.70
2018-07-19T19:37:25.972Z,100851.02
2018-07-19T19:39:55.089Z,100854.53
2018-07-19T19:42:24.172Z,100856.71
2018-07-19T19:44:53.324Z,100857.69
2018-07-19T19:47:22.385Z,100856.95
2018-07-19T19:49:51.494Z,100857.45
2018-07-19T19:52:20.622Z,100861.59
2018-07-19T19:54:49.786Z,100863.09
2018-07-19T19:57:18.979Z,100859.37
2018-07-19T19:59:48.137Z,100862.24
2018-07-19T20:02:17.223Z,100864.04
2018-07-19T20:04:46.929Z,100858.75
2018-07-19T20:07:16.037Z,100858.53
2018-07-19T20:09:45.221Z,100854.06
2018-07-19T20:12:14.393Z,100861.68
2018-07-19T20:14:43.488Z,100862.85
2018-07-19T20:17:12.651Z,100867.50
2018-07-19T20:19:41.783Z,100859.96
2018-07-19T20:22:10.898Z,100862.46
2018-07-19T20:24:40.395Z,100863.63
2018-07-19T20:27:09.553Z,100866.53
2018-07-19T20:29:38.645Z,100861.90
2018-07-19T20:32:07.759Z,100859.41
2018-07-19T20:34:36.984Z,100863.06
2018-07-19T20:37:06.076Z,100865.11
2018-07-19T20:39:35.173Z,100860.06
2018-07-19T20:42:04.349Z,100863.73
2018-07-19T20:44:33.481Z,100862.64
2018-07-19T20:47:02.611Z,100867.77
2018-07-19T20:49:31.742Z,100864.36
2018-07-19T20:52:00.861Z,100867.63
2018-07-19T20:54:29.969Z,100870.03
2018-07-19T20:56:59.113Z,100862.61
2018-07-19T20:59:28.237Z,100865.20
2018-07-19T21:01:57.413Z,100858.98
2018-07-19T21:04:26.513Z,100861.16
2018-07-19T21:06:55.645Z,100854.08
2018-07-19T21:09:24.769Z,100857.96
2018-07-19T21:11:53.862Z,100857.55
2018-07-19T21:14:22.997Z,100862.55
2018-07-19T21:16:52.101Z,100863.92
2018-07-19T21:19:21.313Z,100855.05
2018-07-19T21:21:50.481Z,100854.09
2018-07-19T21:24:19.573Z,100858.06
2018-07-19T21:26:48.681Z,100864.53
2018-07-19T21:29:17.797Z,100863.77
2018-07-19T21:31:46.913Z,100868.03
2018-07-19T21:34:16.026Z,100869.20
2018-07-19T21:36:45.127Z,100866.59
2018-07-19T21:39:14.277Z,100869.39
2018-07-19T21:41:43.329Z,100866.08
2018-07-19T21:44:12.425Z,100868.59
2018-07-19T21:46:41.537Z,100867.17
2018-07-19T21:49:11.117Z,100859.92
2018-07-19T21:51:40.181Z,100859.38
2018-07-19T21:54:09.310Z,100856.45
2018-07-19T21:56:38.465Z,100860.56
2018-07-19T21:59:07.603Z,100869.68
2018-07-19T22:01:40.873Z,100864.25
2018-07-19T22:04:10.087Z,100858.20
2018-07-19T22:06:39.189Z,100861.40
2018-07-19T22:09:09.904Z,100854.35
2018-07-19T22:11:39.367Z,100862.73
2018-07-19T22:14:08.769Z,100862.28
2018-07-19T22:16:39.029Z,100859.41
2018-07-19T22:19:08.127Z,100862.84
2018-07-19T22:21:37.272Z,100860.30
2018-07-19T22:24:06.432Z,100871.45
2018-07-19T22:26:35.525Z,100869.62
2018-07-19T22:29:04.820Z,100884.98
2018-07-19T22:31:34.359Z,100887.16
2018-07-19T22:34:03.581Z,100890.33
2018-07-19T22:36:32.717Z,100887.69
2018-07-19T22:39:01.842Z,100887.17
2018-07-19T22:41:30.941Z,100888.28
2018-07-19T22:44:00.062Z,100884.41
2018-07-19T22:46:29.168Z,100885.33
2018-07-19T22:48:58.858Z,100891.61
2018-07-19T22:51:28.001Z,100886.09
2018-07-19T22:53:57.102Z,100882.62
2018-07-19T22:56:26.199Z,100886.39
2018-07-19T22:58:55.283Z,100884.73
2018-07-19T23:01:24.380Z,100885.00
2018-07-19T23:03:53.474Z,100873.95
2018-07-19T23:06:22.601Z,100881.75
2018-07-19T23:08:51.709Z,100887.72
2018-07-19T23:11:20.809Z,100884.39
2018-07-19T23:13:49.909Z,100876.39
2018-07-19T23:16:19.027Z,100876.27
2018-07-19T23:18:48.122Z,100880.98
2018-07-19T23:21:17.245Z,100880.31
2018-07-19T23:23:48.194Z,100882.44
2018-07-19T23:26:17.294Z,100884.52
2018-07-19T23:28:46.413Z,100878.45
2018-07-19T23:31:15.517Z,100878.91
2018-07-19T23:33:44.638Z,100884.22
2018-07-19T23:37:16.679Z,100877.69
2018-07-19T23:40:21.465Z,100883.03
2018-07-19T23:42:54.680Z,100881.34
2018-07-19T23:45:28.944Z,100884.34
2018-07-19T23:47:58.101Z,100885.78
2018-07-19T23:50:27.217Z,100883.56
2018-07-19T23:52:56.361Z,100879.03
2018-07-19T23:55:25.473Z,100882.70
2018-07-19T23:57:54.585Z,100888.22
